sensor_id;sensor_type;location;lat;lon;timestamp;temperature;humidity
29203;DHT22;16245;51.170;4.884;2023-02-28T00:01:23;1.00;99.90
29203;DHT22;16245;51.170;4.884;2023-02-28T00:03:49;1.00;99.90
29203;DHT22;16245;51.170;4.884;2023-02-28T00:06:14;1.10;99.90
29203;DHT22;16245;51.170;4.884;2023-02-28T00:08:40;1.00;99.90
29203;DHT22;16245;51.170;4.884;2023-02-28T00:11:09;0.90;99.90
29203;DHT22;16245;51.170;4.884;2023-02-28T00:13:36;0.90;99.90
29203;DHT22;16245;51.170;4.884;2023-02-28T00:16:10;0.80;99.90
29203;DHT22;16245;51.170;4.884;2023-02-28T00:18:37;0.70;99.90
29203;DHT22;16245;51.170;4.884;2023-02-28T00:21:03;0.70;99.90
29203;DHT22;16245;51.170;4.884;2023-02-28T00:23:29;0.60;99.90
29203;DHT22;16245;51.170;4.884;2023-02-28T00:25:55;0.60;99.90
29203;DHT22;16245;51.170;4.884;2023-02-28T00:28:21;0.40;99.90
29203;DHT22;16245;51.170;4.884;2023-02-28T00:30:47;0.30;99.90
29203;DHT22;16245;51.170;4.884;2023-02-28T00:33:12;0.20;99.90
29203;DHT22;16245;51.170;4.884;2023-02-28T00:35:38;0.20;99.90
29203;DHT22;16245;51.170;4.884;2023-02-28T00:38:04;0.20;99.90
29203;DHT22;16245;51.170;4.884;2023-02-28T00:40:30;0.20;99.90
29203;DHT22;16245;51.170;4.884;2023-02-28T00:42:56;0.20;99.90
29203;DHT22;16245;51.170;4.884;2023-02-28T00:45:21;0.20;99.90
29203;DHT22;16245;51.170;4.884;2023-02-28T00:47:47;0.20;99.90
29203;DHT22;16245;51.170;4.884;2023-02-28T00:50:17;0.20;99.90
29203;DHT22;16245;51.170;4.884;2023-02-28T00:52:43;0.20;99.90
29203;DHT22;16245;51.170;4.884;2023-02-28T00:55:09;0.10;99.90
29203;DHT22;16245;51.170;4.884;2023-02-28T00:57:35;0.20;99.90
29203;DHT22;16245;51.170;4.884;2023-02-28T01:00:01;0.10;99.90
29203;DHT22;16245;51.170;4.884;2023-02-28T01:02:27;0.10;99.90
29203;DHT22;16245;51.170;4.884;2023-02-28T01:04:52;0.10;99.90
29203;DHT22;16245;51.170;4.884;2023-02-28T01:07:19;0.10;99.90
29203;DHT22;16245;51.170;4.884;2023-02-28T01:09:44;0.10;99.90
29203;DHT22;16245;51.170;4.884;2023-02-28T01:12:10;0.00;99.90
29203;DHT22;16245;51.170;4.884;2023-02-28T01:14:36;0.00;99.90
29203;DHT22;16245;51.170;4.884;2023-02-28T01:17:01;0.00;99.90
29203;DHT22;16245;51.170;4.884;2023-02-28T01:19:27;0.00;99.90
29203;DHT22;16245;51.170;4.884;2023-02-28T01:21:53;-0.10;99.90
29203;DHT22;16245;51.170;4.884;2023-02-28T01:24:18;0.00;99.90
29203;DHT22;16245;51.170;4.884;2023-02-28T01:26:44;0.00;99.90
29203;DHT22;16245;51.170;4.884;2023-02-28T01:29:10;-0.10;99.90
29203;DHT22;16245;51.170;4.884;2023-02-28T01:31:36;-0.20;99.90
29203;DHT22;16245;51.170;4.884;2023-02-28T01:34:02;-0.10;99.90
29203;DHT22;16245;51.170;4.884;2023-02-28T01:36:28;-0.20;99.90
29203;DHT22;16245;51.170;4.884;2023-02-28T01:38:54;-0.20;99.90
29203;DHT22;16245;51.170;4.884;2023-02-28T01:46:14;-0.20;99.90
29203;DHT22;16245;51.170;4.884;2023-02-28T01:48:49;-0.20;99.90
29203;DHT22;16245;51.170;4.884;2023-02-28T01:51:46;-0.20;99.90
29203;DHT22;16245;51.170;4.884;2023-02-28T01:54:31;-0.30;99.90
29203;DHT22;16245;51.170;4.884;2023-02-28T01:57:01;-0.20;99.90
29203;DHT22;16245;51.170;4.884;2023-02-28T01:59:58;-0.20;99.90
29203;DHT22;16245;51.170;4.884;2023-02-28T02:02:26;-0.20;99.90
29203;DHT22;16245;51.170;4.884;2023-02-28T02:05:04;-0.30;99.90
29203;DHT22;16245;51.170;4.884;2023-02-28T02:07:33;-0.30;99.90
29203;DHT22;16245;51.170;4.884;2023-02-28T02:10:10;-0.30;99.90
29203;DHT22;16245;51.170;4.884;2023-02-28T02:18:19;-0.30;99.90
29203;DHT22;16245;51.170;4.884;2023-02-28T02:40:31;-0.50;99.90
29203;DHT22;16245;51.170;4.884;2023-02-28T02:43:08;-0.60;99.90
29203;DHT22;16245;51.170;4.884;2023-02-28T02:45:46;-0.50;99.90
29203;DHT22;16245;51.170;4.884;2023-02-28T02:48:16;-0.60;99.90
29203;DHT22;16245;51.170;4.884;2023-02-28T02:50:47;-0.50;99.90
29203;DHT22;16245;51.170;4.884;2023-02-28T02:53:16;-0.60;99.90
29203;DHT22;16245;51.170;4.884;2023-02-28T02:55:46;-0.60;99.90
29203;DHT22;16245;51.170;4.884;2023-02-28T02:58:15;-0.50;99.90
29203;DHT22;16245;51.170;4.884;2023-02-28T03:00:46;-0.60;99.90
29203;DHT22;16245;51.170;4.884;2023-02-28T03:03:13;-0.50;99.90
29203;DHT22;16245;51.170;4.884;2023-02-28T03:05:46;-0.60;99.90
29203;DHT22;16245;51.170;4.884;2023-02-28T03:08:12;-0.70;99.90
29203;DHT22;16245;51.170;4.884;2023-02-28T03:10:43;-0.70;99.90
29203;DHT22;16245;51.170;4.884;2023-02-28T03:13:20;-0.70;99.90
29203;DHT22;16245;51.170;4.884;2023-02-28T03:21:33;-0.90;99.90
29203;DHT22;16245;51.170;4.884;2023-02-28T03:26:54;-0.90;99.90
29203;DHT22;16245;51.170;4.884;2023-02-28T03:29:37;-0.90;99.90
29203;DHT22;16245;51.170;4.884;2023-02-28T03:32:11;-0.90;99.90
29203;DHT22;16245;51.170;4.884;2023-02-28T03:34:46;-0.90;99.90
29203;DHT22;16245;51.170;4.884;2023-02-28T03:37:20;-0.90;99.90
29203;DHT22;16245;51.170;4.884;2023-02-28T03:39:53;-0.90;99.90
29203;DHT22;16245;51.170;4.884;2023-02-28T03:42:22;-0.90;99.90
29203;DHT22;16245;51.170;4.884;2023-02-28T03:45:04;-0.90;99.90
29203;DHT22;16245;51.170;4.884;2023-02-28T03:50:07;-0.80;99.90
29203;DHT22;16245;51.170;4.884;2023-02-28T03:52:40;-0.90;99.90
29203;DHT22;16245;51.170;4.884;2023-02-28T03:55:09;-0.80;99.90
29203;DHT22;16245;51.170;4.884;2023-02-28T03:58:04;-0.80;99.90
29203;DHT22;16245;51.170;4.884;2023-02-28T04:00:37;-0.80;99.90
29203;DHT22;16245;51.170;4.884;2023-02-28T04:03:04;-0.80;99.90
29203;DHT22;16245;51.170;4.884;2023-02-28T04:05:30;-0.70;99.90
29203;DHT22;16245;51.170;4.884;2023-02-28T04:08:07;-0.80;99.90
29203;DHT22;16245;51.170;4.884;2023-02-28T04:10:33;-0.90;99.90
29203;DHT22;16245;51.170;4.884;2023-02-28T04:12:58;-0.90;99.90
29203;DHT22;16245;51.170;4.884;2023-02-28T04:15:24;-0.90;99.90
29203;DHT22;16245;51.170;4.884;2023-02-28T04:17:50;-0.90;99.90
29203;DHT22;16245;51.170;4.884;2023-02-28T04:20:16;-0.90;99.90
29203;DHT22;16245;51.170;4.884;2023-02-28T04:22:42;-0.80;99.90
29203;DHT22;16245;51.170;4.884;2023-02-28T04:25:07;-0.80;99.90
29203;DHT22;16245;51.170;4.884;2023-02-28T04:27:33;-0.80;99.90
29203;DHT22;16245;51.170;4.884;2023-02-28T04:29:59;-0.60;99.90
29203;DHT22;16245;51.170;4.884;2023-02-28T04:32:25;-0.50;99.90
29203;DHT22;16245;51.170;4.884;2023-02-28T04:34:51;-0.40;99.90
29203;DHT22;16245;51.170;4.884;2023-02-28T04:37:16;-0.40;99.90
29203;DHT22;16245;51.170;4.884;2023-02-28T04:39:42;-0.30;99.90
29203;DHT22;16245;51.170;4.884;2023-02-28T04:42:08;-0.20;99.90
29203;DHT22;16245;51.170;4.884;2023-02-28T04:44:34;-0.10;99.90
29203;DHT22;16245;51.170;4.884;2023-02-28T04:46:59;-0.10;99.90
29203;DHT22;16245;51.170;4.884;2023-02-28T04:49:25;0.00;99.90
29203;DHT22;16245;51.170;4.884;2023-02-28T04:51:51;0.10;99.90
29203;DHT22;16245;51.170;4.884;2023-02-28T04:54:18;0.10;99.90
29203;DHT22;16245;51.170;4.884;2023-02-28T04:56:44;0.10;99.90
29203;DHT22;16245;51.170;4.884;2023-02-28T04:59:09;0.20;99.90
29203;DHT22;16245;51.170;4.884;2023-02-28T05:01:35;0.20;99.90
29203;DHT22;16245;51.170;4.884;2023-02-28T05:04:03;0.20;99.90
29203;DHT22;16245;51.170;4.884;2023-02-28T05:06:31;0.30;99.90
29203;DHT22;16245;51.170;4.884;2023-02-28T05:08:57;0.30;99.90
29203;DHT22;16245;51.170;4.884;2023-02-28T05:11:29;0.30;99.90
29203;DHT22;16245;51.170;4.884;2023-02-28T05:14:00;0.40;99.90
29203;DHT22;16245;51.170;4.884;2023-02-28T05:16:26;0.40;99.90
29203;DHT22;16245;51.170;4.884;2023-02-28T05:18:52;0.50;99.90
29203;DHT22;16245;51.170;4.884;2023-02-28T05:23:53;0.50;99.90
29203;DHT22;16245;51.170;4.884;2023-02-28T05:26:19;0.50;99.90
29203;DHT22;16245;51.170;4.884;2023-02-28T05:28:45;0.60;99.90
29203;DHT22;16245;51.170;4.884;2023-02-28T05:31:11;0.60;99.90
29203;DHT22;16245;51.170;4.884;2023-02-28T05:33:37;0.60;99.90
29203;DHT22;16245;51.170;4.884;2023-02-28T05:36:03;0.60;99.90
29203;DHT22;16245;51.170;4.884;2023-02-28T05:38:29;0.70;99.90
29203;DHT22;16245;51.170;4.884;2023-02-28T05:40:55;0.80;99.90
29203;DHT22;16245;51.170;4.884;2023-02-28T05:43:21;0.70;99.90
29203;DHT22;16245;51.170;4.884;2023-02-28T05:45:47;0.70;99.90
29203;DHT22;16245;51.170;4.884;2023-02-28T05:48:12;0.70;99.90
29203;DHT22;16245;51.170;4.884;2023-02-28T05:50:38;0.70;99.90
29203;DHT22;16245;51.170;4.884;2023-02-28T05:53:04;0.80;99.90
29203;DHT22;16245;51.170;4.884;2023-02-28T05:55:30;0.80;99.90
29203;DHT22;16245;51.170;4.884;2023-02-28T05:57:55;0.80;99.90
29203;DHT22;16245;51.170;4.884;2023-02-28T06:00:22;0.80;99.90
29203;DHT22;16245;51.170;4.884;2023-02-28T06:02:47;0.90;99.90
29203;DHT22;16245;51.170;4.884;2023-02-28T06:05:16;0.90;99.90
29203;DHT22;16245;51.170;4.884;2023-02-28T06:07:42;1.00;99.90
29203;DHT22;16245;51.170;4.884;2023-02-28T06:10:12;1.00;99.90
29203;DHT22;16245;51.170;4.884;2023-02-28T06:12:39;1.00;99.90
29203;DHT22;16245;51.170;4.884;2023-02-28T06:15:07;1.00;99.90
29203;DHT22;16245;51.170;4.884;2023-02-28T06:17:33;1.10;99.90
29203;DHT22;16245;51.170;4.884;2023-02-28T06:19:59;1.20;99.90
29203;DHT22;16245;51.170;4.884;2023-02-28T06:22:24;1.10;99.90
29203;DHT22;16245;51.170;4.884;2023-02-28T06:24:50;1.10;99.90
29203;DHT22;16245;51.170;4.884;2023-02-28T06:27:16;1.10;99.90
29203;DHT22;16245;51.170;4.884;2023-02-28T06:29:41;1.10;99.90
29203;DHT22;16245;51.170;4.884;2023-02-28T06:32:07;1.10;99.90
29203;DHT22;16245;51.170;4.884;2023-02-28T06:34:33;1.10;99.90
29203;DHT22;16245;51.170;4.884;2023-02-28T06:37:01;1.20;99.90
29203;DHT22;16245;51.170;4.884;2023-02-28T06:39:31;1.30;99.90
29203;DHT22;16245;51.170;4.884;2023-02-28T06:41:56;1.30;99.90
29203;DHT22;16245;51.170;4.884;2023-02-28T06:44:23;1.30;99.90
29203;DHT22;16245;51.170;4.884;2023-02-28T06:46:49;1.40;99.90
29203;DHT22;16245;51.170;4.884;2023-02-28T06:49:15;1.50;99.90
29203;DHT22;16245;51.170;4.884;2023-02-28T06:51:43;1.60;99.90
29203;DHT22;16245;51.170;4.884;2023-02-28T06:54:11;1.60;99.90
29203;DHT22;16245;51.170;4.884;2023-02-28T06:56:37;1.70;99.90
29203;DHT22;16245;51.170;4.884;2023-02-28T06:59:03;1.80;99.90
29203;DHT22;16245;51.170;4.884;2023-02-28T07:01:29;1.80;99.90
29203;DHT22;16245;51.170;4.884;2023-02-28T07:03:57;1.90;99.90
29203;DHT22;16245;51.170;4.884;2023-02-28T07:06:23;1.90;99.90
29203;DHT22;16245;51.170;4.884;2023-02-28T07:08:50;1.90;99.90
29203;DHT22;16245;51.170;4.884;2023-02-28T07:11:17;1.90;99.90
29203;DHT22;16245;51.170;4.884;2023-02-28T07:13:43;1.90;99.90
29203;DHT22;16245;51.170;4.884;2023-02-28T07:16:10;2.00;99.90
29203;DHT22;16245;51.170;4.884;2023-02-28T07:18:37;2.10;99.90
29203;DHT22;16245;51.170;4.884;2023-02-28T07:21:08;2.20;99.90
29203;DHT22;16245;51.170;4.884;2023-02-28T07:23:34;2.40;99.90
29203;DHT22;16245;51.170;4.884;2023-02-28T07:26:00;2.50;99.90
29203;DHT22;16245;51.170;4.884;2023-02-28T07:28:25;2.80;99.90
29203;DHT22;16245;51.170;4.884;2023-02-28T07:30:51;2.90;99.90
29203;DHT22;16245;51.170;4.884;2023-02-28T07:33:17;3.10;99.90
29203;DHT22;16245;51.170;4.884;2023-02-28T07:35:43;3.20;99.90
29203;DHT22;16245;51.170;4.884;2023-02-28T07:38:09;3.40;99.90
29203;DHT22;16245;51.170;4.884;2023-02-28T07:40:35;3.70;99.90
29203;DHT22;16245;51.170;4.884;2023-02-28T07:43:02;3.90;99.90
29203;DHT22;16245;51.170;4.884;2023-02-28T07:45:28;4.60;99.90
29203;DHT22;16245;51.170;4.884;2023-02-28T07:47:55;5.80;99.90
29203;DHT22;16245;51.170;4.884;2023-02-28T07:50:21;7.60;99.90
29203;DHT22;16245;51.170;4.884;2023-02-28T07:52:47;9.30;99.90
29203;DHT22;16245;51.170;4.884;2023-02-28T07:55:13;10.40;99.90
29203;DHT22;16245;51.170;4.884;2023-02-28T07:57:40;11.60;99.90
29203;DHT22;16245;51.170;4.884;2023-02-28T08:00:08;12.40;98.20
29203;DHT22;16245;51.170;4.884;2023-02-28T08:02:35;13.10;97.60
29203;DHT22;16245;51.170;4.884;2023-02-28T08:05:01;13.60;95.80
29203;DHT22;16245;51.170;4.884;2023-02-28T08:07:27;14.10;95.10
29203;DHT22;16245;51.170;4.884;2023-02-28T08:09:53;14.50;94.00
29203;DHT22;16245;51.170;4.884;2023-02-28T08:12:18;14.50;93.00
29203;DHT22;16245;51.170;4.884;2023-02-28T08:14:44;15.00;92.00
29203;DHT22;16245;51.170;4.884;2023-02-28T08:17:10;14.60;91.70
29203;DHT22;16245;51.170;4.884;2023-02-28T08:19:36;14.50;92.50
29203;DHT22;16245;51.170;4.884;2023-02-28T08:22:02;14.70;92.30
29203;DHT22;16245;51.170;4.884;2023-02-28T08:24:28;15.40;90.00
29203;DHT22;16245;51.170;4.884;2023-02-28T08:26:55;15.80;90.40
29203;DHT22;16245;51.170;4.884;2023-02-28T08:29:20;15.70;90.10
29203;DHT22;16245;51.170;4.884;2023-02-28T08:31:46;15.80;90.10
29203;DHT22;16245;51.170;4.884;2023-02-28T08:34:14;16.10;88.90
29203;DHT22;16245;51.170;4.884;2023-02-28T08:36:40;16.50;87.10
29203;DHT22;16245;51.170;4.884;2023-02-28T08:39:07;16.20;86.50
29203;DHT22;16245;51.170;4.884;2023-02-28T08:41:34;16.10;85.90
29203;DHT22;16245;51.170;4.884;2023-02-28T08:44:00;15.50;86.50
29203;DHT22;16245;51.170;4.884;2023-02-28T08:46:25;16.30;85.20
29203;DHT22;16245;51.170;4.884;2023-02-28T08:48:53;16.40;86.10
29203;DHT22;16245;51.170;4.884;2023-02-28T08:51:20;16.90;82.70
29203;DHT22;16245;51.170;4.884;2023-02-28T08:54:01;17.10;83.00
29203;DHT22;16245;51.170;4.884;2023-02-28T08:56:28;17.10;81.90
29203;DHT22;16245;51.170;4.884;2023-02-28T08:58:55;17.30;81.50
29203;DHT22;16245;51.170;4.884;2023-02-28T09:01:26;17.20;79.90
29203;DHT22;16245;51.170;4.884;2023-02-28T09:03:53;17.40;79.10
29203;DHT22;16245;51.170;4.884;2023-02-28T09:06:21;16.90;79.10
29203;DHT22;16245;51.170;4.884;2023-02-28T09:08:47;16.80;78.10
29203;DHT22;16245;51.170;4.884;2023-02-28T09:11:14;16.40;77.60
29203;DHT22;16245;51.170;4.884;2023-02-28T09:13:39;16.60;75.50
29203;DHT22;16245;51.170;4.884;2023-02-28T09:16:07;16.50;78.10
29203;DHT22;16245;51.170;4.884;2023-02-28T09:18:37;16.80;78.10
29203;DHT22;16245;51.170;4.884;2023-02-28T09:21:08;16.80;77.10
29203;DHT22;16245;51.170;4.884;2023-02-28T09:23:35;16.40;79.20
29203;DHT22;16245;51.170;4.884;2023-02-28T09:26:03;16.80;78.80
29203;DHT22;16245;51.170;4.884;2023-02-28T09:28:29;17.80;76.20
29203;DHT22;16245;51.170;4.884;2023-02-28T09:30:55;17.70;75.80
29203;DHT22;16245;51.170;4.884;2023-02-28T09:33:22;17.70;75.90
29203;DHT22;16245;51.170;4.884;2023-02-28T09:35:49;18.20;75.00
29203;DHT22;16245;51.170;4.884;2023-02-28T09:38:15;17.80;73.70
29203;DHT22;16245;51.170;4.884;2023-02-28T09:41:01;17.70;74.00
29203;DHT22;16245;51.170;4.884;2023-02-28T09:43:35;17.00;73.70
29203;DHT22;16245;51.170;4.884;2023-02-28T09:46:18;17.50;73.20
29203;DHT22;16245;51.170;4.884;2023-02-28T09:48:48;17.10;69.20
29203;DHT22;16245;51.170;4.884;2023-02-28T09:53:53;16.20;66.90
29203;DHT22;16245;51.170;4.884;2023-02-28T09:56:31;14.70;74.00
29203;DHT22;16245;51.170;4.884;2023-02-28T09:59:01;15.30;78.00
29203;DHT22;16245;51.170;4.884;2023-02-28T10:01:49;16.40;70.70
29203;DHT22;16245;51.170;4.884;2023-02-28T10:06:55;17.20;69.80
29203;DHT22;16245;51.170;4.884;2023-02-28T10:09:32;17.30;69.60
29203;DHT22;16245;51.170;4.884;2023-02-28T10:12:03;17.90;66.70
29203;DHT22;16245;51.170;4.884;2023-02-28T10:14:32;17.80;68.90
29203;DHT22;16245;51.170;4.884;2023-02-28T10:17:02;17.80;65.80
29203;DHT22;16245;51.170;4.884;2023-02-28T10:22:20;17.30;68.00
29203;DHT22;16245;51.170;4.884;2023-02-28T10:24:50;17.40;65.30
29203;DHT22;16245;51.170;4.884;2023-02-28T10:27:24;17.30;68.60
29203;DHT22;16245;51.170;4.884;2023-02-28T10:29:55;17.50;69.90
29203;DHT22;16245;51.170;4.884;2023-02-28T10:32:34;18.10;68.40
29203;DHT22;16245;51.170;4.884;2023-02-28T10:37:42;18.20;65.40
29203;DHT22;16245;51.170;4.884;2023-02-28T10:40:34;16.90;64.70
29203;DHT22;16245;51.170;4.884;2023-02-28T10:43:23;17.10;66.20
29203;DHT22;16245;51.170;4.884;2023-02-28T10:45:59;17.40;68.30
29203;DHT22;16245;51.170;4.884;2023-02-28T10:48:34;17.20;66.20
29203;DHT22;16245;51.170;4.884;2023-02-28T10:51:00;17.30;65.10
29203;DHT22;16245;51.170;4.884;2023-02-28T10:53:49;17.70;63.90
29203;DHT22;16245;51.170;4.884;2023-02-28T10:56:19;17.10;64.20
29203;DHT22;16245;51.170;4.884;2023-02-28T11:01:21;15.20;66.30
29203;DHT22;16245;51.170;4.884;2023-02-28T11:03:48;15.60;63.80
29203;DHT22;16245;51.170;4.884;2023-02-28T11:08:53;16.50;68.80
29203;DHT22;16245;51.170;4.884;2023-02-28T11:11:21;16.40;66.20
29203;DHT22;16245;51.170;4.884;2023-02-28T11:13:51;16.30;62.70
29203;DHT22;16245;51.170;4.884;2023-02-28T11:16:18;16.10;66.90
29203;DHT22;16245;51.170;4.884;2023-02-28T11:18:53;14.20;61.90
29203;DHT22;16245;51.170;4.884;2023-02-28T11:21:30;13.10;69.70
29203;DHT22;16245;51.170;4.884;2023-02-28T11:26:47;14.30;69.80
29203;DHT22;16245;51.170;4.884;2023-02-28T11:29:24;14.30;63.70
29203;DHT22;16245;51.170;4.884;2023-02-28T11:34:29;13.90;66.20
29203;DHT22;16245;51.170;4.884;2023-02-28T11:36:57;13.30;66.60
29203;DHT22;16245;51.170;4.884;2023-02-28T11:39:23;13.20;70.10
29203;DHT22;16245;51.170;4.884;2023-02-28T11:52:55;11.40;75.20
29203;DHT22;16245;51.170;4.884;2023-02-28T12:14:19;8.50;79.70
29203;DHT22;16245;51.170;4.884;2023-02-28T12:19:31;8.40;81.50
29203;DHT22;16245;51.170;4.884;2023-02-28T12:25:18;8.60;80.10
29203;DHT22;16245;51.170;4.884;2023-02-28T12:27:48;8.50;79.50
29203;DHT22;16245;51.170;4.884;2023-02-28T12:30:25;8.50;80.60
29203;DHT22;16245;51.170;4.884;2023-02-28T12:33:19;8.50;81.80
29203;DHT22;16245;51.170;4.884;2023-02-28T12:35:51;8.60;77.60
29203;DHT22;16245;51.170;4.884;2023-02-28T12:41:37;8.60;78.60
29203;DHT22;16245;51.170;4.884;2023-02-28T12:44:12;8.50;79.10
29203;DHT22;16245;51.170;4.884;2023-02-28T12:46:46;8.10;80.10
29203;DHT22;16245;51.170;4.884;2023-02-28T12:49:19;8.10;82.90
29203;DHT22;16245;51.170;4.884;2023-02-28T12:51:47;8.00;81.60
29203;DHT22;16245;51.170;4.884;2023-02-28T12:54:19;7.80;83.50
29203;DHT22;16245;51.170;4.884;2023-02-28T12:59:45;8.10;82.40
29203;DHT22;16245;51.170;4.884;2023-02-28T13:10:42;8.00;81.20
29203;DHT22;16245;51.170;4.884;2023-02-28T13:13:15;8.00;85.60
29203;DHT22;16245;51.170;4.884;2023-02-28T13:16:06;8.20;84.40
29203;DHT22;16245;51.170;4.884;2023-02-28T13:21:09;8.10;83.20
29203;DHT22;16245;51.170;4.884;2023-02-28T13:34:32;7.70;83.50
29203;DHT22;16245;51.170;4.884;2023-02-28T13:47:50;7.90;87.00
29203;DHT22;16245;51.170;4.884;2023-02-28T14:06:55;7.90;88.50
29203;DHT22;16245;51.170;4.884;2023-02-28T14:09:51;7.90;87.20
29203;DHT22;16245;51.170;4.884;2023-02-28T14:18:03;8.20;85.80
29203;DHT22;16245;51.170;4.884;2023-02-28T14:20:32;8.20;87.00
29203;DHT22;16245;51.170;4.884;2023-02-28T14:25:32;8.10;87.70
29203;DHT22;16245;51.170;4.884;2023-02-28T14:28:26;8.20;85.60
29203;DHT22;16245;51.170;4.884;2023-02-28T14:31:09;8.00;85.90
29203;DHT22;16245;51.170;4.884;2023-02-28T14:36:39;7.70;85.60
29203;DHT22;16245;51.170;4.884;2023-02-28T14:39:10;7.60;87.20
29203;DHT22;16245;51.170;4.884;2023-02-28T14:41:40;7.60;87.60
29203;DHT22;16245;51.170;4.884;2023-02-28T14:44:20;7.70;88.20
29203;DHT22;16245;51.170;4.884;2023-02-28T14:46:49;7.70;88.20
29203;DHT22;16245;51.170;4.884;2023-02-28T14:51:50;7.80;88.20
29203;DHT22;16245;51.170;4.884;2023-02-28T14:54:18;7.70;88.80
29203;DHT22;16245;51.170;4.884;2023-02-28T14:56:50;7.70;88.50
29203;DHT22;16245;51.170;4.884;2023-02-28T14:59:35;7.70;88.30
29203;DHT22;16245;51.170;4.884;2023-02-28T15:02:23;7.60;87.30
29203;DHT22;16245;51.170;4.884;2023-02-28T15:04:55;7.50;89.20
29203;DHT22;16245;51.170;4.884;2023-02-28T15:07:22;7.40;87.10
29203;DHT22;16245;51.170;4.884;2023-02-28T15:12:34;7.40;89.10
29203;DHT22;16245;51.170;4.884;2023-02-28T15:15:01;7.40;89.50
29203;DHT22;16245;51.170;4.884;2023-02-28T15:17:27;7.30;89.20
29203;DHT22;16245;51.170;4.884;2023-02-28T15:19:53;7.30;89.40
29203;DHT22;16245;51.170;4.884;2023-02-28T15:22:26;7.30;89.30
29203;DHT22;16245;51.170;4.884;2023-02-28T15:24:55;7.20;88.80
29203;DHT22;16245;51.170;4.884;2023-02-28T15:27:29;7.30;89.60
29203;DHT22;16245;51.170;4.884;2023-02-28T15:30:01;7.20;88.90
29203;DHT22;16245;51.170;4.884;2023-02-28T15:32:34;7.10;90.00
29203;DHT22;16245;51.170;4.884;2023-02-28T15:37:54;6.90;90.30
29203;DHT22;16245;51.170;4.884;2023-02-28T15:40:37;7.00;90.10
29203;DHT22;16245;51.170;4.884;2023-02-28T15:43:36;7.00;90.20
29203;DHT22;16245;51.170;4.884;2023-02-28T15:46:09;6.90;90.40
29203;DHT22;16245;51.170;4.884;2023-02-28T15:48:37;6.90;90.10
29203;DHT22;16245;51.170;4.884;2023-02-28T15:51:06;6.90;90.40
29203;DHT22;16245;51.170;4.884;2023-02-28T15:53:35;6.90;90.20
29203;DHT22;16245;51.170;4.884;2023-02-28T15:56:04;6.90;90.60
29203;DHT22;16245;51.170;4.884;2023-02-28T15:58:30;6.90;90.40
29203;DHT22;16245;51.170;4.884;2023-02-28T16:01:05;6.90;89.90
29203;DHT22;16245;51.170;4.884;2023-02-28T16:03:40;6.90;90.30
29203;DHT22;16245;51.170;4.884;2023-02-28T16:06:24;6.80;90.20
29203;DHT22;16245;51.170;4.884;2023-02-28T16:08:51;6.70;90.40
29203;DHT22;16245;51.170;4.884;2023-02-28T16:11:20;6.70;90.50
29203;DHT22;16245;51.170;4.884;2023-02-28T16:13:47;6.70;90.80
29203;DHT22;16245;51.170;4.884;2023-02-28T16:16:21;6.60;90.30
29203;DHT22;16245;51.170;4.884;2023-02-28T16:18:48;6.60;91.00
29203;DHT22;16245;51.170;4.884;2023-02-28T16:21:13;6.50;90.50
29203;DHT22;16245;51.170;4.884;2023-02-28T16:23:39;6.40;90.50
29203;DHT22;16245;51.170;4.884;2023-02-28T16:26:05;6.40;90.50
29203;DHT22;16245;51.170;4.884;2023-02-28T16:28:35;6.40;90.60
29203;DHT22;16245;51.170;4.884;2023-02-28T16:31:02;6.40;90.70
29203;DHT22;16245;51.170;4.884;2023-02-28T16:33:29;6.30;90.60
29203;DHT22;16245;51.170;4.884;2023-02-28T16:35:55;6.20;90.80
29203;DHT22;16245;51.170;4.884;2023-02-28T16:38:20;6.20;90.90
29203;DHT22;16245;51.170;4.884;2023-02-28T16:40:49;6.10;91.20
29203;DHT22;16245;51.170;4.884;2023-02-28T16:43:18;6.00;91.30
29203;DHT22;16245;51.170;4.884;2023-02-28T16:45:45;6.00;91.20
29203;DHT22;16245;51.170;4.884;2023-02-28T16:48:13;6.00;91.30
29203;DHT22;16245;51.170;4.884;2023-02-28T16:50:39;5.80;91.50
29203;DHT22;16245;51.170;4.884;2023-02-28T16:53:05;5.70;91.40
29203;DHT22;16245;51.170;4.884;2023-02-28T16:55:31;5.60;91.70
29203;DHT22;16245;51.170;4.884;2023-02-28T16:57:59;5.60;91.90
29203;DHT22;16245;51.170;4.884;2023-02-28T17:00:26;5.50;92.10
29203;DHT22;16245;51.170;4.884;2023-02-28T17:02:53;5.40;92.40
29203;DHT22;16245;51.170;4.884;2023-02-28T17:05:19;5.30;92.50
29203;DHT22;16245;51.170;4.884;2023-02-28T17:07:45;5.20;92.70
29203;DHT22;16245;51.170;4.884;2023-02-28T17:12:40;5.10;93.00
29203;DHT22;16245;51.170;4.884;2023-02-28T17:15:06;5.00;93.10
29203;DHT22;16245;51.170;4.884;2023-02-28T17:17:32;4.90;93.00
29203;DHT22;16245;51.170;4.884;2023-02-28T17:19:58;4.80;93.30
29203;DHT22;16245;51.170;4.884;2023-02-28T17:22:23;4.70;93.30
29203;DHT22;16245;51.170;4.884;2023-02-28T17:24:51;4.70;93.50
29203;DHT22;16245;51.170;4.884;2023-02-28T17:27:21;4.60;93.60
29203;DHT22;16245;51.170;4.884;2023-02-28T17:29:46;4.50;93.90
29203;DHT22;16245;51.170;4.884;2023-02-28T17:32:12;4.40;93.90
29203;DHT22;16245;51.170;4.884;2023-02-28T17:34:38;4.40;93.80
29203;DHT22;16245;51.170;4.884;2023-02-28T17:37:03;4.30;94.10
29203;DHT22;16245;51.170;4.884;2023-02-28T17:39:29;4.20;94.10
29203;DHT22;16245;51.170;4.884;2023-02-28T17:41:56;4.20;94.20
29203;DHT22;16245;51.170;4.884;2023-02-28T17:44:23;4.10;94.30
29203;DHT22;16245;51.170;4.884;2023-02-28T17:46:51;4.00;94.40
29203;DHT22;16245;51.170;4.884;2023-02-28T17:49:17;4.00;94.40
29203;DHT22;16245;51.170;4.884;2023-02-28T17:51:43;3.90;94.50
29203;DHT22;16245;51.170;4.884;2023-02-28T17:54:09;3.90;94.60
29203;DHT22;16245;51.170;4.884;2023-02-28T17:56:34;3.80;94.70
29203;DHT22;16245;51.170;4.884;2023-02-28T17:59:00;3.80;94.70
29203;DHT22;16245;51.170;4.884;2023-02-28T18:01:26;3.70;94.80
29203;DHT22;16245;51.170;4.884;2023-02-28T18:03:53;3.70;95.00
29203;DHT22;16245;51.170;4.884;2023-02-28T18:06:32;3.60;95.00
29203;DHT22;16245;51.170;4.884;2023-02-28T18:08:59;3.60;95.20
29203;DHT22;16245;51.170;4.884;2023-02-28T18:11:25;3.50;95.30
29203;DHT22;16245;51.170;4.884;2023-02-28T18:13:53;3.50;95.40
29203;DHT22;16245;51.170;4.884;2023-02-28T18:16:21;3.40;95.50
29203;DHT22;16245;51.170;4.884;2023-02-28T18:18:47;3.30;95.50
29203;DHT22;16245;51.170;4.884;2023-02-28T18:21:16;3.30;95.60
29203;DHT22;16245;51.170;4.884;2023-02-28T18:23:42;3.30;95.60
29203;DHT22;16245;51.170;4.884;2023-02-28T18:26:16;3.20;95.70
29203;DHT22;16245;51.170;4.884;2023-02-28T18:28:42;3.10;95.80
29203;DHT22;16245;51.170;4.884;2023-02-28T18:31:11;3.00;96.00
29203;DHT22;16245;51.170;4.884;2023-02-28T18:33:37;3.00;96.10
29203;DHT22;16245;51.170;4.884;2023-02-28T18:36:05;3.00;96.20
29203;DHT22;16245;51.170;4.884;2023-02-28T18:38:31;3.00;96.20
29203;DHT22;16245;51.170;4.884;2023-02-28T18:41:02;2.90;96.30
29203;DHT22;16245;51.170;4.884;2023-02-28T18:43:29;2.90;96.40
29203;DHT22;16245;51.170;4.884;2023-02-28T18:45:55;2.90;96.50
29203;DHT22;16245;51.170;4.884;2023-02-28T18:48:21;2.80;96.50
29203;DHT22;16245;51.170;4.884;2023-02-28T18:50:50;2.70;96.70